Morija, Lesotho
Current Conditions -  °F | °C
As of 12:00 PM on Friday 21 Nov 2014 (Local Time) from FALE Reporting Station
Broken Clouds Broken Clouds  
Wind Chill: 72°   Ceiling: 4900
Heat Index: 72°   Visibility: 6mi
Dew Point: 63°   Wind: 7mph
Humidity: 73%   Direction: 130°SE
Pressure: 30.06"   Gusts: NA
Location:  29.63°S, 27.52°E
Report Text: FALE 211000Z 13006KT 9999 FEW013 SCT023 BKN049 22/17 Q1018 NOSIG
Loading
Personal Weather Stations






























Interactive Weather Map New forecast layout! Learn more

10-Day Weather Forecast

Advertisements
Track Severe Weather on mobile